Time;durP1;ratioP1;P1;durP2;ratioP2;P2;SDS_P1;SDS_P2;PMS_P1;PMS_P2;Temp;Humidity;BMP_temperature;BMP_pressure;BME280_temperature;BME280_humidity;BME280_pressure;Samples;Min_cycle;Max_cycle;Signal;HPM_P1;HPM_P2
2023/07/12 00:00:47;;;;;;;6.53;5.93;;;;;;;;;;4987458;28;20120;-77
2023/07/12 00:03:13;;;;;;;6.70;6.00;;;;;;;;;;4987700;28;20022;-76
2023/07/12 00:05:38;;;;;;;5.70;5.13;;;;;;;;;;4985407;28;20034;-77
2023/07/12 00:08:04;;;;;;;8.60;6.60;;;;;;;;;;4985555;28;20394;-77
2023/07/12 00:10:34;;;;;;;10.18;6.72;;;;;;;;;;4987012;28;20131;-77
2023/07/12 00:12:59;;;;;;;6.63;5.80;;;;;;;;;;4988721;28;20022;-76
2023/07/12 00:15:28;;;;;;;8.55;6.30;;;;;;;;;;4988018;28;20030;-77
2023/07/12 00:17:54;;;;;;;6.03;5.40;;;;;;;;;;4987980;28;20032;-77
2023/07/12 00:20:30;;;;;;;7.57;5.90;;;;;;;;;;4988187;28;20055;-76
2023/07/12 00:22:56;;;;;;;5.82;5.13;;;;;;;;;;4986886;28;20022;-76
2023/07/12 00:25:24;;;;;;;7.25;5.85;;;;;;;;;;4988062;28;20052;-76
2023/07/12 00:27:50;;;;;;;6.65;5.72;;;;;;;;;;4988814;28;20030;-77
2023/07/12 00:30:17;;;;;;;6.18;5.20;;;;;;;;;;4988483;28;20098;-77
2023/07/12 00:32:43;;;;;;;5.97;5.38;;;;;;;;;;4987820;28;20089;-77
2023/07/12 00:35:15;;;;;;;5.63;5.13;;;;;;;;;;4987653;28;20026;-77
2023/07/12 00:37:41;;;;;;;6.60;5.60;;;;;;;;;;4988480;28;20165;-76
2023/07/12 00:40:36;;;;;;;8.43;6.40;;;;;;;;;;4988178;28;20101;-77
2023/07/12 00:43:15;;;;;;;6.53;5.22;;;;;;;;;;4988035;28;20402;-76
2023/07/12 00:45:42;;;;;;;6.75;5.65;;;;;;;;;;4984373;28;20022;-76
2023/07/12 00:48:12;;;;;;;7.93;5.80;;;;;;;;;;4988265;28;20435;-76
2023/07/12 00:50:39;;;;;;;5.78;5.20;;;;;;;;;;4987972;28;20165;-76
2023/07/12 00:53:04;;;;;;;5.45;4.95;;;;;;;;;;4986544;28;20041;-76
2023/07/12 00:55:51;;;;;;;6.28;4.85;;;;;;;;;;4986944;28;20030;-76
2023/07/12 00:58:17;;;;;;;7.20;5.43;;;;;;;;;;4987752;28;20018;-76
2023/07/12 01:00:42;;;;;;;6.90;4.88;;;;;;;;;;4987954;28;20048;-76
2023/07/12 01:03:13;;;;;;;6.07;5.25;;;;;;;;;;4987335;28;20026;-76
2023/07/12 01:05:44;;;;;;;6.85;4.78;;;;;;;;;;4987291;28;20046;-76
2023/07/12 01:08:11;;;;;;;8.27;4.95;;;;;;;;;;4986669;28;20022;-76
2023/07/12 01:10:37;;;;;;;5.03;4.53;;;;;;;;;;4986270;28;20034;-76
2023/07/12 01:13:04;;;;;;;6.75;4.55;;;;;;;;;;4985534;28;20418;-76
2023/07/12 01:15:31;;;;;;;6.07;4.50;;;;;;;;;;4986558;28;20108;-76
2023/07/12 01:17:57;;;;;;;6.93;4.80;;;;;;;;;;4985321;28;20475;-76
2023/07/12 01:20:23;;;;;;;7.05;4.40;;;;;;;;;;4987716;28;20511;-76
2023/07/12 01:22:51;;;;;;;6.93;4.70;;;;;;;;;;4987385;28;20050;-76
2023/07/12 01:25:17;;;;;;;4.30;3.90;;;;;;;;;;4987527;28;20022;-76
2023/07/12 01:27:42;;;;;;;5.65;4.32;;;;;;;;;;4985660;28;20065;-76
2023/07/12 01:30:08;;;;;;;6.57;3.90;;;;;;;;;;4985029;28;20037;-76
2023/07/12 01:32:35;;;;;;;6.72;3.92;;;;;;;;;;4986767;28;20034;-76
2023/07/12 01:35:01;;;;;;;4.53;4.07;;;;;;;;;;4986342;28;20022;-76
2023/07/12 01:37:26;;;;;;;4.80;3.80;;;;;;;;;;4987401;28;20022;-76
2023/07/12 01:39:53;;;;;;;5.40;3.90;;;;;;;;;;4986558;28;20030;-76
2023/07/12 01:42:18;;;;;;;5.88;3.95;;;;;;;;;;4986677;28;20061;-77
2023/07/12 01:44:43;;;;;;;3.92;3.53;;;;;;;;;;4987448;28;20050;-76
2023/07/12 01:47:09;;;;;;;4.90;3.60;;;;;;;;;;4986751;28;20414;-76
2023/07/12 01:49:35;;;;;;;5.43;3.13;;;;;;;;;;4984231;28;20624;-77
2023/07/12 01:52:00;;;;;;;4.25;2.90;;;;;;;;;;4986623;28;20057;-77
2023/07/12 01:54:25;;;;;;;4.22;2.80;;;;;;;;;;4987346;28;20029;-76
2023/07/12 01:56:51;;;;;;;4.55;2.90;;;;;;;;;;4986823;28;20428;-77
2023/07/12 01:59:16;;;;;;;4.35;3.15;;;;;;;;;;4986506;28;20042;-76
2023/07/12 02:01:42;;;;;;;2.95;2.47;;;;;;;;;;4985777;28;20486;-76
2023/07/12 02:04:07;;;;;;;3.17;2.70;;;;;;;;;;4987502;28;20101;-77
2023/07/12 02:06:32;;;;;;;3.70;2.95;;;;;;;;;;4985926;28;20101;-76
2023/07/12 02:08:58;;;;;;;3.00;2.70;;;;;;;;;;4984777;28;20034;-76
2023/07/12 02:11:23;;;;;;;3.80;3.00;;;;;;;;;;4985979;28;20074;-76
2023/07/12 02:13:49;;;;;;;2.67;2.40;;;;;;;;;;4984340;28;20052;-76
2023/07/12 02:16:14;;;;;;;3.65;2.80;;;;;;;;;;4985977;28;20116;-76
2023/07/12 02:18:39;;;;;;;2.92;2.55;;;;;;;;;;4984002;28;20053;-75
2023/07/12 02:21:05;;;;;;;3.53;2.58;;;;;;;;;;4987055;28;20057;-76
2023/07/12 02:23:30;;;;;;;3.03;2.60;;;;;;;;;;4986813;28;20088;-75
2023/07/12 02:25:55;;;;;;;2.63;2.42;;;;;;;;;;4987087;28;20555;-75
2023/07/12 02:28:21;;;;;;;3.25;2.35;;;;;;;;;;4986817;28;20033;-76
2023/07/12 02:30:46;;;;;;;4.20;2.22;;;;;;;;;;4985642;28;20040;-77
2023/07/12 02:33:11;;;;;;;3.50;2.47;;;;;;;;;;4986998;28;20471;-76
2023/07/12 02:35:39;;;;;;;2.53;2.33;;;;;;;;;;4986735;28;20018;-76
2023/07/12 02:38:05;;;;;;;3.28;2.40;;;;;;;;;;4987750;28;20029;-77
2023/07/12 02:40:30;;;;;;;4.47;2.30;;;;;;;;;;4987532;28;20022;-77
2023/07/12 02:42:56;;;;;;;3.40;2.40;;;;;;;;;;4987217;28;20088;-76
2023/07/12 02:45:22;;;;;;;2.28;2.08;;;;;;;;;;4985056;28;20101;-76
2023/07/12 02:47:47;;;;;;;2.65;2.40;;;;;;;;;;4990069;28;20056;-76
2023/07/12 02:50:13;;;;;;;3.55;2.28;;;;;;;;;;4990540;28;20053;-77
2023/07/12 02:52:39;;;;;;;2.20;2.00;;;;;;;;;;4991248;28;20049;-77
2023/07/12 02:55:05;;;;;;;2.35;1.85;;;;;;;;;;4990940;28;20058;-76
2023/07/12 02:57:30;;;;;;;3.72;2.22;;;;;;;;;;4990794;28;20113;-76
2023/07/12 02:59:55;;;;;;;3.95;2.45;;;;;;;;;;4990771;28;20422;-76
2023/07/12 03:02:21;;;;;;;2.85;2.47;;;;;;;;;;4990681;28;20030;-77
2023/07/12 03:04:46;;;;;;;4.13;2.38;;;;;;;;;;4990394;28;20033;-76
2023/07/12 03:07:12;;;;;;;2.33;2.10;;;;;;;;;;4990728;28;20057;-76
2023/07/12 03:09:38;;;;;;;2.22;1.90;;;;;;;;;;4989445;28;20026;-76
2023/07/12 03:12:04;;;;;;;2.58;2.38;;;;;;;;;;4988367;28;20096;-76
2023/07/12 03:14:29;;;;;;;3.63;2.47;;;;;;;;;;4989901;28;20022;-76
2023/07/12 03:16:55;;;;;;;3.28;2.38;;;;;;;;;;4990080;28;20037;-76
2023/07/12 03:19:21;;;;;;;2.42;2.08;;;;;;;;;;4989344;28;20451;-77
2023/07/12 03:21:46;;;;;;;2.80;2.40;;;;;;;;;;4990054;28;20036;-76
2023/07/12 03:24:12;;;;;;;3.58;2.60;;;;;;;;;;4989541;28;20521;-76
2023/07/12 03:26:37;;;;;;;2.92;2.17;;;;;;;;;;4989029;28;20025;-76
2023/07/12 03:29:03;;;;;;;2.90;2.60;;;;;;;;;;4988802;28;20101;-76
2023/07/12 03:31:29;;;;;;;2.85;2.40;;;;;;;;;;4988608;28;20030;-76
2023/07/12 03:33:55;;;;;;;3.50;2.10;;;;;;;;;;4989703;28;20036;-75
2023/07/12 03:36:24;;;;;;;3.47;2.30;;;;;;;;;;4987573;28;20026;-76
2023/07/12 03:38:50;;;;;;;2.20;1.98;;;;;;;;;;4989695;28;20398;-76
2023/07/12 03:41:15;;;;;;;2.40;2.20;;;;;;;;;;4989110;28;20019;-77
2023/07/12 03:43:41;;;;;;;3.10;2.40;;;;;;;;;;4990018;28;20112;-77
2023/07/12 03:46:07;;;;;;;2.13;1.90;;;;;;;;;;4988785;28;20062;-77
2023/07/12 03:48:33;;;;;;;2.78;2.22;;;;;;;;;;4990557;28;20125;-77
2023/07/12 03:50:59;;;;;;;3.65;2.55;;;;;;;;;;4990510;28;20031;-77
2023/07/12 03:53:26;;;;;;;2.85;2.05;;;;;;;;;;4991097;28;20034;-76
2023/07/12 03:55:52;;;;;;;2.10;1.90;;;;;;;;;;4990180;28;20104;-76
2023/07/12 03:58:21;;;;;;;2.75;2.00;;;;;;;;;;4989064;28;20459;-77
2023/07/12 04:00:48;;;;;;;1.95;1.75;;;;;;;;;;4990196;28;20614;-77
2023/07/12 04:03:15;;;;;;;2.83;2.35;;;;;;;;;;4989027;28;21935;-78
2023/07/12 04:05:42;;;;;;;3.33;2.13;;;;;;;;;;4989541;28;20030;-77
2023/07/12 04:08:09;;;;;;;4.88;2.60;;;;;;;;;;4990295;28;20026;-77
2023/07/12 04:10:35;;;;;;;2.45;2.00;;;;;;;;;;4989568;28;20034;-77
2023/07/12 04:13:02;;;;;;;2.53;2.10;;;;;;;;;;4991545;28;20494;-76
2023/07/12 04:15:27;;;;;;;3.25;2.13;;;;;;;;;;4989420;28;20022;-77
2023/07/12 04:17:52;;;;;;;3.30;2.30;;;;;;;;;;4990018;28;20718;-77
2023/07/12 04:20:18;;;;;;;2.28;2.08;;;;;;;;;;4988841;28;20534;-76
2023/07/12 04:22:48;;;;;;;2.47;2.20;;;;;;;;;;4990930;28;20085;-77
2023/07/12 04:25:14;;;;;;;2.67;2.08;;;;;;;;;;4987611;28;20479;-76
2023/07/12 04:27:39;;;;;;;5.28;2.20;;;;;;;;;;4989029;28;20033;-77
2023/07/12 04:30:07;;;;;;;3.25;2.28;;;;;;;;;;4986191;28;20023;-77
2023/07/12 04:32:33;;;;;;;2.70;1.80;;;;;;;;;;4987793;28;20026;-76
2023/07/12 04:34:59;;;;;;;1.95;1.67;;;;;;;;;;4986807;28;20237;-76
2023/07/12 04:37:24;;;;;;;4.72;2.40;;;;;;;;;;4987892;28;20104;-76
2023/07/12 04:39:50;;;;;;;3.63;2.40;;;;;;;;;;4987711;28;20033;-77
2023/07/12 04:42:17;;;;;;;4.47;2.60;;;;;;;;;;4988036;28;20048;-77
2023/07/12 04:44:42;;;;;;;1.70;1.55;;;;;;;;;;4980825;28;20133;-76
2023/07/12 04:47:08;;;;;;;3.47;2.60;;;;;;;;;;4984201;28;20169;-75
2023/07/12 04:49:33;;;;;;;3.08;2.30;;;;;;;;;;4987147;28;20038;-76
2023/07/12 04:51:59;;;;;;;3.72;2.10;;;;;;;;;;4990073;28;20061;-75
2023/07/12 04:54:25;;;;;;;2.47;2.20;;;;;;;;;;4985396;28;20156;-76
2023/07/12 04:56:50;;;;;;;3.25;2.78;;;;;;;;;;4986429;28;20159;-76
2023/07/12 04:59:16;;;;;;;3.72;2.70;;;;;;;;;;4988244;28;20423;-76
2023/07/12 05:01:42;;;;;;;4.40;3.03;;;;;;;;;;4985649;28;20033;-76
2023/07/12 05:04:07;;;;;;;5.22;3.42;;;;;;;;;;4985461;28;20026;-76
2023/07/12 05:06:33;;;;;;;2.45;2.03;;;;;;;;;;4988087;28;20108;-75
2023/07/12 05:08:58;;;;;;;3.00;2.40;;;;;;;;;;4987266;28;20026;-77
2023/07/12 05:11:24;;;;;;;5.22;3.20;;;;;;;;;;4987266;28;20084;-77
2023/07/12 05:13:49;;;;;;;16.20;7.68;;;;;;;;;;4987342;28;20045;-77
2023/07/12 05:16:15;;;;;;;3.38;2.08;;;;;;;;;;4988328;28;20112;-78
2023/07/12 05:18:40;;;;;;;3.53;2.28;;;;;;;;;;4991456;28;20038;-78
2023/07/12 05:21:06;;;;;;;3.70;3.40;;;;;;;;;;4991634;28;20022;-79
2023/07/12 05:23:31;;;;;;;4.43;3.72;;;;;;;;;;4987679;28;20034;-77
2023/07/12 05:25:57;;;;;;;4.95;3.88;;;;;;;;;;4989231;28;20494;-77
2023/07/12 05:28:22;;;;;;;5.70;3.72;;;;;;;;;;4988043;28;20080;-76
2023/07/12 05:30:48;;;;;;;3.85;2.92;;;;;;;;;;4985006;28;20471;-77
2023/07/12 05:33:14;;;;;;;7.03;4.50;;;;;;;;;;4986541;28;20033;-77
2023/07/12 05:35:40;;;;;;;3.00;2.70;;;;;;;;;;4987268;28;20638;-77
2023/07/12 05:38:06;;;;;;;2.47;2.25;;;;;;;;;;4987330;28;20022;-77
2023/07/12 05:40:32;;;;;;;3.58;2.83;;;;;;;;;;4985405;28;20033;-77
2023/07/12 05:42:58;;;;;;;3.05;2.72;;;;;;;;;;4989808;28;20023;-77
2023/07/12 05:45:24;;;;;;;3.95;3.55;;;;;;;;;;4986817;28;20100;-77
2023/07/12 05:47:50;;;;;;;3.40;2.85;;;;;;;;;;4988402;28;20113;-78
2023/07/12 05:50:17;;;;;;;2.72;2.33;;;;;;;;;;4986962;28;20475;-78
2023/07/12 05:52:43;;;;;;;4.15;2.83;;;;;;;;;;4987851;28;20030;-78
2023/07/12 05:55:11;;;;;;;3.38;3.05;;;;;;;;;;4987903;28;20022;-77
2023/07/12 05:57:36;;;;;;;3.70;3.30;;;;;;;;;;4988378;28;20026;-77
2023/07/12 06:00:03;;;;;;;4.47;3.08;;;;;;;;;;4984872;28;20014;-78
2023/07/12 06:02:29;;;;;;;4.25;2.80;;;;;;;;;;4987126;28;20037;-77
2023/07/12 06:04:54;;;;;;;2.83;2.60;;;;;;;;;;4987894;28;20030;-77
2023/07/12 06:07:20;;;;;;;3.92;2.60;;;;;;;;;;4987688;28;20033;-77
2023/07/12 06:09:46;;;;;;;3.28;2.65;;;;;;;;;;4984573;28;20422;-77
2023/07/12 06:12:11;;;;;;;4.47;2.90;;;;;;;;;;4988653;28;20026;-78
2023/07/12 06:14:37;;;;;;;5.95;3.35;;;;;;;;;;4987813;28;20046;-77
2023/07/12 06:17:04;;;;;;;5.95;3.20;;;;;;;;;;4987987;28;20517;-77
2023/07/12 06:19:29;;;;;;;5.63;2.78;;;;;;;;;;4989324;28;20042;-76
2023/07/12 06:21:55;;;;;;;4.50;2.55;;;;;;;;;;4989338;28;20029;-76
2023/07/12 06:24:20;;;;;;;5.05;2.40;;;;;;;;;;4988654;28;20360;-78
2023/07/12 06:26:45;;;;;;;4.40;2.10;;;;;;;;;;4989998;28;20022;-77
2023/07/12 06:29:11;;;;;;;5.25;2.50;;;;;;;;;;4988848;28;20022;-77
2023/07/12 06:31:36;;;;;;;3.42;2.20;;;;;;;;;;4988988;28;20026;-77
2023/07/12 06:34:03;;;;;;;3.35;2.30;;;;;;;;;;4987243;28;20109;-77
2023/07/12 06:36:30;;;;;;;4.65;2.20;;;;;;;;;;4988975;28;20037;-76
2023/07/12 06:38:56;;;;;;;2.60;2.25;;;;;;;;;;4984036;28;20557;-78
2023/07/12 06:41:22;;;;;;;3.22;1.90;;;;;;;;;;4987295;28;20029;-76
2023/07/12 06:43:47;;;;;;;3.40;1.77;;;;;;;;;;4985591;28;20034;-77
2023/07/12 06:46:12;;;;;;;3.38;2.00;;;;;;;;;;4985063;28;20076;-77
2023/07/12 06:48:38;;;;;;;2.53;1.77;;;;;;;;;;4986084;28;20026;-77
2023/07/12 06:51:04;;;;;;;3.58;1.90;;;;;;;;;;4986919;28;20539;-77
2023/07/12 06:53:29;;;;;;;2.60;1.75;;;;;;;;;;4985161;28;20022;-77
2023/07/12 06:55:55;;;;;;;2.13;1.50;;;;;;;;;;4982457;28;20753;-77
2023/07/12 06:58:21;;;;;;;2.03;1.67;;;;;;;;;;4968723;28;20046;-77
2023/07/12 07:00:47;;;;;;;1.50;1.40;;;;;;;;;;4984961;28;20459;-77
2023/07/12 07:03:13;;;;;;;1.73;1.23;;;;;;;;;;4986362;28;20034;-77
2023/07/12 07:05:42;;;;;;;6.30;1.98;;;;;;;;;;4986085;28;20411;-77
2023/07/12 07:08:08;;;;;;;1.40;1.30;;;;;;;;;;4985833;28;20027;-77
2023/07/12 07:10:34;;;;;;;1.80;1.50;;;;;;;;;;4986222;28;20057;-77
2023/07/12 07:13:00;;;;;;;1.55;1.25;;;;;;;;;;4985506;28;20022;-77
2023/07/12 07:15:26;;;;;;;1.40;1.20;;;;;;;;;;4984531;28;20014;-77
2023/07/12 07:17:52;;;;;;;1.10;1.00;;;;;;;;;;4999487;28;20026;-77
2023/07/12 07:20:17;;;;;;;3.30;1.10;;;;;;;;;;4986285;28;20015;-77
2023/07/12 07:22:42;;;;;;;1.30;1.20;;;;;;;;;;4985025;28;20041;-77
2023/07/12 07:25:08;;;;;;;1.33;1.10;;;;;;;;;;4988882;28;20032;-77
2023/07/12 07:27:34;;;;;;;2.70;1.00;;;;;;;;;;4983031;28;20018;-77
2023/07/12 07:29:59;;;;;;;1.45;0.95;;;;;;;;;;4977264;28;20387;-77
2023/07/12 07:32:24;;;;;;;2.67;1.10;;;;;;;;;;4983709;28;20088;-78
2023/07/12 07:34:50;;;;;;;1.05;0.90;;;;;;;;;;4988883;28;20213;-77
2023/07/12 07:37:15;;;;;;;1.85;1.10;;;;;;;;;;4990544;28;20038;-77
2023/07/12 07:39:40;;;;;;;1.48;0.95;;;;;;;;;;4986765;28;20411;-77
2023/07/12 07:42:06;;;;;;;2.58;1.33;;;;;;;;;;4988906;28;20026;-77
2023/07/12 07:44:32;;;;;;;0.85;0.85;;;;;;;;;;4987548;28;20030;-77
2023/07/12 07:46:57;;;;;;;1.35;0.95;;;;;;;;;;4988305;28;20038;-77
2023/07/12 07:49:23;;;;;;;1.02;0.85;;;;;;;;;;4987604;28;20030;-77
2023/07/12 07:51:48;;;;;;;2.15;0.93;;;;;;;;;;4988598;28;20384;-77
2023/07/12 07:54:14;;;;;;;1.10;1.00;;;;;;;;;;4987298;28;20045;-77
2023/07/12 07:56:41;;;;;;;0.88;0.80;;;;;;;;;;4988595;28;20037;-77
2023/07/12 07:59:07;;;;;;;0.90;0.85;;;;;;;;;;4987169;28;20073;-77
2023/07/12 08:01:32;;;;;;;1.27;0.93;;;;;;;;;;4987778;28;20022;-77
2023/07/12 08:03:58;;;;;;;1.08;0.98;;;;;;;;;;4987828;28;20391;-77
2023/07/12 08:06:23;;;;;;;1.10;1.00;;;;;;;;;;4987405;28;20018;-77
2023/07/12 08:08:49;;;;;;;1.20;0.90;;;;;;;;;;4988348;28;20073;-77
2023/07/12 08:11:14;;;;;;;0.80;0.80;;;;;;;;;;4987086;28;20121;-77
2023/07/12 08:13:40;;;;;;;1.77;0.80;;;;;;;;;;4988447;28;20380;-78
2023/07/12 08:16:05;;;;;;;1.85;0.90;;;;;;;;;;4988404;28;20037;-77
2023/07/12 08:18:31;;;;;;;2.15;0.70;;;;;;;;;;4988321;28;20023;-76
2023/07/12 08:20:57;;;;;;;0.75;0.75;;;;;;;;;;4986581;28;20034;-77
2023/07/12 08:23:23;;;;;;;1.15;0.85;;;;;;;;;;4988649;28;20066;-77
2023/07/12 08:25:52;;;;;;;1.73;0.80;;;;;;;;;;4986984;28;20092;-77
2023/07/12 08:28:17;;;;;;;0.95;0.60;;;;;;;;;;4987000;28;20018;-77
2023/07/12 08:30:43;;;;;;;0.70;0.60;;;;;;;;;;4988390;28;20037;-77
2023/07/12 08:33:08;;;;;;;0.80;0.63;;;;;;;;;;4970799;28;20034;-77
2023/07/12 08:35:34;;;;;;;1.67;0.80;;;;;;;;;;4987833;28;20019;-77
2023/07/12 08:37:59;;;;;;;0.93;0.70;;;;;;;;;;4985952;28;20506;-78
2023/07/12 08:40:26;;;;;;;0.93;0.80;;;;;;;;;;4984085;28;20080;-77
2023/07/12 08:42:51;;;;;;;1.42;0.65;;;;;;;;;;4983822;28;20022;-77
2023/07/12 08:45:28;;;;;;;0.60;0.60;;;;;;;;;;4984883;28;20041;-78
2023/07/12 08:48:00;;;;;;;0.50;0.47;;;;;;;;;;5001511;28;20073;-77
2023/07/12 08:50:40;;;;;;;0.60;0.60;;;;;;;;;;4984659;28;20511;-77
2023/07/12 08:53:29;;;;;;;0.68;0.60;;;;;;;;;;4987289;28;20451;-77
2023/07/12 08:55:57;;;;;;;1.02;0.60;;;;;;;;;;4986051;28;20511;-77
2023/07/12 08:58:22;;;;;;;1.60;0.60;;;;;;;;;;4987080;28;20033;-77
2023/07/12 09:01:03;;;;;;;0.77;0.38;;;;;;;;;;4985417;28;20030;-77
2023/07/12 09:03:28;;;;;;;1.05;0.60;;;;;;;;;;4987604;28;20026;-77
2023/07/12 09:05:54;;;;;;;0.45;0.45;;;;;;;;;;4987752;28;20080;-77
2023/07/12 09:08:31;;;;;;;0.52;0.52;;;;;;;;;;4985909;28;20030;-77
2023/07/12 09:10:57;;;;;;;0.47;0.40;;;;;;;;;;4985943;28;20030;-77
2023/07/12 09:13:35;;;;;;;1.00;0.52;;;;;;;;;;4987563;28;20022;-76
2023/07/12 09:16:02;;;;;;;1.80;0.50;;;;;;;;;;4986468;28;20042;-77
2023/07/12 09:18:32;;;;;;;1.45;0.60;;;;;;;;;;4984288;28;20037;-77
2023/07/12 09:21:00;;;;;;;1.00;0.60;;;;;;;;;;4985173;28;20033;-76
2023/07/12 09:23:36;;;;;;;0.52;0.52;;;;;;;;;;4986983;28;20557;-77
2023/07/12 09:26:08;;;;;;;1.00;0.70;;;;;;;;;;4985205;28;20118;-77
2023/07/12 09:28:38;;;;;;;0.65;0.40;;;;;;;;;;4985978;28;20034;-77
2023/07/12 09:31:16;;;;;;;0.93;0.60;;;;;;;;;;4984675;28;20073;-77
2023/07/12 09:33:49;;;;;;;0.65;0.65;;;;;;;;;;4985369;28;20033;-78
2023/07/12 09:36:17;;;;;;;0.93;0.60;;;;;;;;;;4985827;28;20026;-77
2023/07/12 09:38:43;;;;;;;0.93;0.45;;;;;;;;;;4984571;28;20512;-77
2023/07/12 09:41:14;;;;;;;1.60;0.82;;;;;;;;;;4983649;28;20022;-77
2023/07/12 09:43:39;;;;;;;1.02;0.60;;;;;;;;;;4980774;28;20551;-78
2023/07/12 09:46:37;;;;;;;0.90;0.70;;;;;;;;;;4978367;28;20495;-78
2023/07/12 09:49:11;;;;;;;0.80;0.60;;;;;;;;;;4980701;28;20031;-76
2023/07/12 09:52:00;;;;;;;0.57;0.52;;;;;;;;;;4985430;28;20602;-78
2023/07/12 09:54:40;;;;;;;1.05;0.60;;;;;;;;;;4985347;28;20510;-77
2023/07/12 09:57:15;;;;;;;1.00;0.50;;;;;;;;;;4982221;28;20042;-78
2023/07/12 10:00:19;;;;;;;0.80;0.68;;;;;;;;;;4983219;28;20031;-77
2023/07/12 10:03:13;;;;;;;0.40;0.40;;;;;;;;;;4984420;28;20026;-78
2023/07/12 10:05:46;;;;;;;1.27;0.82;;;;;;;;;;4984544;28;20026;-78
2023/07/12 10:08:17;;;;;;;0.93;0.50;;;;;;;;;;4985477;28;20022;-77
2023/07/12 10:11:11;;;;;;;1.80;0.77;;;;;;;;;;4984550;28;20110;-77
2023/07/12 10:13:41;;;;;;;2.15;0.80;;;;;;;;;;4985583;28;20046;-77
2023/07/12 10:16:17;;;;;;;1.60;0.60;;;;;;;;;;4983013;28;20027;-76
2023/07/12 10:18:43;;;;;;;1.80;0.90;;;;;;;;;;4983429;28;20033;-77
2023/07/12 10:21:16;;;;;;;1.10;0.60;;;;;;;;;;4985522;28;20021;-77
2023/07/12 10:24:13;;;;;;;1.70;0.93;;;;;;;;;;4984849;28;20058;-76
2023/07/12 10:26:38;;;;;;;0.80;0.70;;;;;;;;;;4986388;28;20038;-78
2023/07/12 10:29:07;;;;;;;0.55;0.50;;;;;;;;;;4981849;28;20018;-77
2023/07/12 10:31:41;;;;;;;0.90;0.75;;;;;;;;;;4985831;28;20038;-77
2023/07/12 10:34:28;;;;;;;0.52;0.40;;;;;;;;;;4983498;28;20026;-76
2023/07/12 10:36:55;;;;;;;0.75;0.75;;;;;;;;;;4984794;28;20026;-77
2023/07/12 10:39:23;;;;;;;1.63;0.80;;;;;;;;;;4985572;28;20681;-77
2023/07/12 10:41:53;;;;;;;0.88;0.70;;;;;;;;;;4984624;28;20026;-78
2023/07/12 10:44:23;;;;;;;;;;;;;;;;;;4986139;28;21707;-77
2023/07/12 10:46:54;;;;;;;0.73;0.70;;;;;;;;;;4985454;28;19967;-76
2023/07/12 10:49:39;;;;;;;0.63;0.63;;;;;;;;;;4980279;28;20092;-77
2023/07/12 10:52:10;;;;;;;2.53;0.90;;;;;;;;;;4985762;28;20030;-77
2023/07/12 10:54:36;;;;;;;2.00;1.00;;;;;;;;;;4984636;28;20751;-78
2023/07/12 10:57:19;;;;;;;1.05;0.82;;;;;;;;;;4986073;28;20030;-78
2023/07/12 10:59:45;;;;;;;1.40;1.08;;;;;;;;;;4983318;28;20023;-77
2023/07/12 11:02:25;;;;;;;1.13;0.80;;;;;;;;;;4985048;28;20038;-78
2023/07/12 11:04:50;;;;;;;0.80;0.57;;;;;;;;;;4985723;28;20570;-77
2023/07/12 11:07:16;;;;;;;1.38;0.60;;;;;;;;;;4985990;28;20125;-77
2023/07/12 11:09:47;;;;;;;1.27;0.77;;;;;;;;;;4987103;28;20515;-78
2023/07/12 11:12:14;;;;;;;1.20;0.70;;;;;;;;;;4983781;28;20026;-78
2023/07/12 11:14:40;;;;;;;0.70;0.70;;;;;;;;;;4986684;28;20030;-77
2023/07/12 11:17:05;;;;;;;1.13;0.75;;;;;;;;;;4987369;28;20120;-77
2023/07/12 11:19:40;;;;;;;1.55;0.68;;;;;;;;;;4987657;28;20097;-78
2023/07/12 11:23:02;;;;;;;0.68;0.68;;;;;;;;;;4987239;28;20029;-78
2023/07/12 11:26:01;;;;;;;0.73;0.70;;;;;;;;;;4988925;28;20502;-78
2023/07/12 11:28:45;;;;;;;0.50;0.50;;;;;;;;;;4989591;28;20551;-77
2023/07/12 11:31:26;;;;;;;0.68;0.68;;;;;;;;;;4987120;28;20808;-78
2023/07/12 11:34:10;;;;;;;1.95;0.60;;;;;;;;;;4988757;28;20030;-77
2023/07/12 11:36:36;;;;;;;0.63;0.63;;;;;;;;;;4988487;28;20123;-77
2023/07/12 11:39:08;;;;;;;0.75;0.63;;;;;;;;;;4988991;28;20026;-78
2023/07/12 11:41:34;;;;;;;0.70;0.70;;;;;;;;;;4988419;28;20054;-77
2023/07/12 11:44:06;;;;;;;1.98;0.90;;;;;;;;;;4988624;28;20057;-78
2023/07/12 11:46:41;;;;;;;0.60;0.60;;;;;;;;;;4988627;28;20408;-77
2023/07/12 11:49:19;;;;;;;0.65;0.60;;;;;;;;;;4989085;28;20042;-77
2023/07/12 11:51:47;;;;;;;0.77;0.65;;;;;;;;;;4988218;28;20030;-77
2023/07/12 11:54:19;;;;;;;1.90;0.98;;;;;;;;;;4986600;28;20030;-78
2023/07/12 11:56:47;;;;;;;0.80;0.80;;;;;;;;;;4988741;28;20041;-77
2023/07/12 11:59:14;;;;;;;0.77;0.70;;;;;;;;;;4987907;28;20038;-78
2023/07/12 12:01:39;;;;;;;1.80;0.77;;;;;;;;;;4986400;28;20030;-77
2023/07/12 12:04:05;;;;;;;0.95;0.85;;;;;;;;;;4988192;28;20509;-78
2023/07/12 12:06:31;;;;;;;0.90;0.70;;;;;;;;;;4987454;28;20034;-78
2023/07/12 12:08:57;;;;;;;1.08;0.73;;;;;;;;;;4987807;28;20022;-77
2023/07/12 12:11:27;;;;;;;1.10;1.00;;;;;;;;;;4987448;28;20084;-77
2023/07/12 12:13:53;;;;;;;0.88;0.80;;;;;;;;;;4987703;28;20022;-77
2023/07/12 12:16:27;;;;;;;1.17;1.08;;;;;;;;;;4985384;28;20464;-77
2023/07/12 12:18:54;;;;;;;1.05;0.98;;;;;;;;;;4986632;28;20774;-77
2023/07/12 12:21:22;;;;;;;1.75;1.13;;;;;;;;;;4987260;28;20118;-77
2023/07/12 12:23:55;;;;;;;0.88;0.77;;;;;;;;;;4987977;28;20471;-77
2023/07/12 12:26:28;;;;;;;1.30;1.20;;;;;;;;;;4988346;28;20057;-77
2023/07/12 12:29:17;;;;;;;1.20;1.10;;;;;;;;;;4988759;28;20033;-77
2023/07/12 12:32:03;;;;;;;0.90;0.90;;;;;;;;;;4988288;28;20165;-78
2023/07/12 12:34:43;;;;;;;1.60;1.50;;;;;;;;;;4988784;28;20752;-79
2023/07/12 12:37:11;;;;;;;1.17;1.08;;;;;;;;;;4987756;28;20026;-78
2023/07/12 12:39:37;;;;;;;0.85;0.85;;;;;;;;;;4987862;28;20076;-79
2023/07/12 12:42:17;;;;;;;1.20;1.20;;;;;;;;;;4987696;28;20033;-78
2023/07/12 12:44:42;;;;;;;0.88;0.88;;;;;;;;;;4987380;28;20042;-77
2023/07/12 12:47:15;;;;;;;2.10;1.23;;;;;;;;;;4989350;28;20034;-78
2023/07/12 12:49:41;;;;;;;1.08;1.08;;;;;;;;;;4986620;28;20114;-78
2023/07/12 12:52:25;;;;;;;1.60;1.50;;;;;;;;;;4985331;28;20448;-76
2023/07/12 12:54:51;;;;;;;1.10;1.10;;;;;;;;;;4986236;28;20081;-77
2023/07/12 12:57:17;;;;;;;1.25;1.25;;;;;;;;;;4986737;28;20064;-77
2023/07/12 12:59:43;;;;;;;1.15;0.85;;;;;;;;;;4986625;28;20022;-78
2023/07/12 13:02:13;;;;;;;0.95;0.93;;;;;;;;;;4986476;28;20023;-77
2023/07/12 13:04:38;;;;;;;1.58;1.30;;;;;;;;;;4987771;28;20434;-76
2023/07/12 13:07:04;;;;;;;1.42;1.33;;;;;;;;;;4986847;28;20083;-77
2023/07/12 13:09:31;;;;;;;1.00;1.00;;;;;;;;;;4984734;28;20092;-77
2023/07/12 13:11:56;;;;;;;1.10;1.00;;;;;;;;;;4984870;28;20030;-77
2023/07/12 13:14:22;;;;;;;1.30;1.20;;;;;;;;;;4986807;28;20026;-76
2023/07/12 13:16:47;;;;;;;1.10;1.10;;;;;;;;;;4987468;28;20037;-76
2023/07/12 13:19:13;;;;;;;1.10;1.00;;;;;;;;;;4986434;28;20025;-77
2023/07/12 13:21:40;;;;;;;1.50;1.40;;;;;;;;;;4982460;28;20018;-77
2023/07/12 13:24:06;;;;;;;1.30;1.20;;;;;;;;;;4986916;28;20030;-77
2023/07/12 13:26:34;;;;;;;1.05;1.05;;;;;;;;;;4987692;28;20022;-77
2023/07/12 13:29:00;;;;;;;1.35;1.25;;;;;;;;;;4985441;28;20507;-77
2023/07/12 13:31:25;;;;;;;1.10;1.00;;;;;;;;;;4985481;28;20038;-77
2023/07/12 13:33:50;;;;;;;1.00;0.98;;;;;;;;;;4986429;28;20076;-77
2023/07/12 13:36:33;;;;;;;1.10;1.10;;;;;;;;;;4984279;28;20120;-77
2023/07/12 13:39:07;;;;;;;1.00;1.00;;;;;;;;;;4983102;28;20038;-77
2023/07/12 13:41:33;;;;;;;3.63;1.10;;;;;;;;;;4985333;28;20136;-77
2023/07/12 13:43:58;;;;;;;0.85;0.85;;;;;;;;;;4985459;28;20133;-76
2023/07/12 13:46:25;;;;;;;1.05;0.98;;;;;;;;;;4985215;28;20037;-76
2023/07/12 13:48:50;;;;;;;1.23;1.13;;;;;;;;;;4984297;28;20851;-77
2023/07/12 13:51:19;;;;;;;1.05;1.00;;;;;;;;;;4985368;28;20034;-77
2023/07/12 13:53:44;;;;;;;0.82;0.82;;;;;;;;;;4985986;28;20061;-76
2023/07/12 13:56:11;;;;;;;0.90;0.90;;;;;;;;;;4982487;28;20050;-76
2023/07/12 13:58:36;;;;;;;1.10;1.00;;;;;;;;;;4985065;28;20483;-77
2023/07/12 14:01:02;;;;;;;0.85;0.85;;;;;;;;;;4983548;28;20054;-76
2023/07/12 14:03:27;;;;;;;1.85;1.00;;;;;;;;;;4986388;28;20048;-77
2023/07/12 14:05:53;;;;;;;1.63;1.20;;;;;;;;;;4984805;28;20023;-79
2023/07/12 14:08:18;;;;;;;1.20;0.98;;;;;;;;;;4986027;28;20034;-78
2023/07/12 14:10:44;;;;;;;1.48;1.20;;;;;;;;;;4986829;28;20026;-79
2023/07/12 14:13:20;;;;;;;0.98;0.95;;;;;;;;;;4986760;28;20034;-79
2023/07/12 14:15:47;;;;;;;0.77;0.77;;;;;;;;;;4984628;28;20026;-79
2023/07/12 14:18:13;;;;;;;2.83;1.08;;;;;;;;;;4984469;28;20407;-78
2023/07/12 14:20:38;;;;;;;1.10;1.00;;;;;;;;;;4985942;28;20015;-76
2023/07/12 14:23:13;;;;;;;1.40;1.10;;;;;;;;;;4986522;28;20064;-78
2023/07/12 14:25:41;;;;;;;1.90;1.10;;;;;;;;;;4986709;28;20499;-78
2023/07/12 14:28:08;;;;;;;0.98;0.90;;;;;;;;;;4986624;28;20030;-78
2023/07/12 14:30:33;;;;;;;0.85;0.82;;;;;;;;;;4988169;28;20049;-79
2023/07/12 14:32:59;;;;;;;2.20;1.00;;;;;;;;;;4969773;28;20398;-79
2023/07/12 14:35:26;;;;;;;1.23;1.00;;;;;;;;;;4983676;28;20057;-78
2023/07/12 14:37:52;;;;;;;0.80;0.80;;;;;;;;;;4987188;28;20031;-77
2023/07/12 14:40:19;;;;;;;1.25;1.10;;;;;;;;;;4987545;28;20022;-78
2023/07/12 14:42:44;;;;;;;1.00;0.85;;;;;;;;;;4987162;28;20057;-78
2023/07/12 14:45:19;;;;;;;2.28;1.00;;;;;;;;;;4976878;28;20065;-78
2023/07/12 14:47:44;;;;;;;0.77;0.77;;;;;;;;;;4985442;28;20057;-77
2023/07/12 14:50:14;;;;;;;0.93;0.93;;;;;;;;;;4988681;28;20065;-77